sensor_id;sensor_type;location;lat;lon;timestamp;temperature;humidity
78536;SHT31;67829;51.968;5.684;2023-11-18T00:00:16;9.1;70.6
78536;SHT31;67829;51.968;5.684;2023-11-18T00:02:44;9.0;70.4
78536;SHT31;67829;51.968;5.684;2023-11-18T00:05:13;9.0;70.4
78536;SHT31;67829;51.968;5.684;2023-11-18T00:07:42;9.0;70.3
78536;SHT31;67829;51.968;5.684;2023-11-18T00:10:11;8.9;70.4
78536;SHT31;67829;51.968;5.684;2023-11-18T00:12:39;8.9;70.5
78536;SHT31;67829;51.968;5.684;2023-11-18T00:15:09;8.9;70.6
78536;SHT31;67829;51.968;5.684;2023-11-18T00:17:39;8.8;70.7
78536;SHT31;67829;51.968;5.684;2023-11-18T00:20:09;8.8;71.0
78536;SHT31;67829;51.968;5.684;2023-11-18T00:22:40;8.8;71.2
78536;SHT31;67829;51.968;5.684;2023-11-18T00:25:09;8.7;71.3
78536;SHT31;67829;51.968;5.684;2023-11-18T00:27:40;8.7;71.6
78536;SHT31;67829;51.968;5.684;2023-11-18T00:30:10;8.7;71.7
78536;SHT31;67829;51.968;5.684;2023-11-18T00:32:39;8.7;71.7
78536;SHT31;67829;51.968;5.684;2023-11-18T00:35:09;8.6;71.7
78536;SHT31;67829;51.968;5.684;2023-11-18T00:37:38;8.6;71.8
78536;SHT31;67829;51.968;5.684;2023-11-18T00:40:08;8.6;71.9
78536;SHT31;67829;51.968;5.684;2023-11-18T00:42:38;8.6;71.9
78536;SHT31;67829;51.968;5.684;2023-11-18T00:45:07;8.6;71.9
78536;SHT31;67829;51.968;5.684;2023-11-18T00:47:39;8.6;71.9
78536;SHT31;67829;51.968;5.684;2023-11-18T00:50:08;8.6;72.0
78536;SHT31;67829;51.968;5.684;2023-11-18T00:52:37;8.6;72.0
78536;SHT31;67829;51.968;5.684;2023-11-18T00:55:08;8.6;72.2
78536;SHT31;67829;51.968;5.684;2023-11-18T00:57:37;8.6;72.2
78536;SHT31;67829;51.968;5.684;2023-11-18T01:00:08;8.5;72.2
78536;SHT31;67829;51.968;5.684;2023-11-18T01:02:40;8.5;72.3
78536;SHT31;67829;51.968;5.684;2023-11-18T01:05:09;8.5;72.2
78536;SHT31;67829;51.968;5.684;2023-11-18T01:07:38;8.5;72.2
78536;SHT31;67829;51.968;5.684;2023-11-18T01:10:07;8.5;72.1
78536;SHT31;67829;51.968;5.684;2023-11-18T01:12:37;8.5;71.9
78536;SHT31;67829;51.968;5.684;2023-11-18T01:15:06;8.5;72.0
78536;SHT31;67829;51.968;5.684;2023-11-18T01:17:36;8.4;72.2
78536;SHT31;67829;51.968;5.684;2023-11-18T01:20:05;8.4;72.5
78536;SHT31;67829;51.968;5.684;2023-11-18T01:22:37;8.4;72.8
78536;SHT31;67829;51.968;5.684;2023-11-18T01:25:07;8.4;72.9
78536;SHT31;67829;51.968;5.684;2023-11-18T01:27:37;8.4;73.3
78536;SHT31;67829;51.968;5.684;2023-11-18T01:30:07;8.4;73.5
78536;SHT31;67829;51.968;5.684;2023-11-18T01:32:36;8.4;73.6
78536;SHT31;67829;51.968;5.684;2023-11-18T01:35:06;8.4;73.6
78536;SHT31;67829;51.968;5.684;2023-11-18T01:37:37;8.4;73.8
78536;SHT31;67829;51.968;5.684;2023-11-18T01:40:06;8.4;73.9
78536;SHT31;67829;51.968;5.684;2023-11-18T01:42:35;8.4;74.0
78536;SHT31;67829;51.968;5.684;2023-11-18T01:45:04;8.5;74.0
78536;SHT31;67829;51.968;5.684;2023-11-18T01:47:38;8.5;74.0
78536;SHT31;67829;51.968;5.684;2023-11-18T01:50:10;8.5;73.9
78536;SHT31;67829;51.968;5.684;2023-11-18T01:52:41;8.5;73.8
78536;SHT31;67829;51.968;5.684;2023-11-18T01:55:10;8.5;73.5
78536;SHT31;67829;51.968;5.684;2023-11-18T01:57:40;8.5;73.6
78536;SHT31;67829;51.968;5.684;2023-11-18T02:00:13;8.5;73.5
78536;SHT31;67829;51.968;5.684;2023-11-18T02:02:43;8.5;73.3
78536;SHT31;67829;51.968;5.684;2023-11-18T02:05:12;8.5;73.2
78536;SHT31;67829;51.968;5.684;2023-11-18T02:07:42;8.5;73.1
78536;SHT31;67829;51.968;5.684;2023-11-18T02:10:12;8.5;73.1
78536;SHT31;67829;51.968;5.684;2023-11-18T02:12:46;8.5;73.0
78536;SHT31;67829;51.968;5.684;2023-11-18T02:15:21;8.5;72.8
78536;SHT31;67829;51.968;5.684;2023-11-18T02:17:53;8.6;72.8
78536;SHT31;67829;51.968;5.684;2023-11-18T02:20:22;8.6;72.8
78536;SHT31;67829;51.968;5.684;2023-11-18T02:22:53;8.6;72.8
78536;SHT31;67829;51.968;5.684;2023-11-18T02:25:24;8.6;72.8
78536;SHT31;67829;51.968;5.684;2023-11-18T02:27:55;8.6;72.8
78536;SHT31;67829;51.968;5.684;2023-11-18T02:30:26;8.6;72.9
78536;SHT31;67829;51.968;5.684;2023-11-18T02:33:01;8.6;72.4
78536;SHT31;67829;51.968;5.684;2023-11-18T02:35:38;8.6;72.2
78536;SHT31;67829;51.968;5.684;2023-11-18T02:38:10;8.6;72.3
78536;SHT31;67829;51.968;5.684;2023-11-18T02:40:42;8.6;72.4
78536;SHT31;67829;51.968;5.684;2023-11-18T02:43:11;8.6;72.5
78536;SHT31;67829;51.968;5.684;2023-11-18T02:45:41;8.6;72.4
78536;SHT31;67829;51.968;5.684;2023-11-18T02:48:10;8.6;72.0
78536;SHT31;67829;51.968;5.684;2023-11-18T02:50:41;8.6;72.0
78536;SHT31;67829;51.968;5.684;2023-11-18T02:53:10;8.6;72.3
78536;SHT31;67829;51.968;5.684;2023-11-18T02:55:38;8.6;72.3
78536;SHT31;67829;51.968;5.684;2023-11-18T02:58:08;8.6;72.5
78536;SHT31;67829;51.968;5.684;2023-11-18T03:00:36;8.6;72.7
78536;SHT31;67829;51.968;5.684;2023-11-18T03:03:05;8.6;72.6
78536;SHT31;67829;51.968;5.684;2023-11-18T03:05:33;8.6;72.5
78536;SHT31;67829;51.968;5.684;2023-11-18T03:08:03;8.6;72.4
78536;SHT31;67829;51.968;5.684;2023-11-18T03:10:32;8.6;72.5
78536;SHT31;67829;51.968;5.684;2023-11-18T03:13:02;8.6;72.5
78536;SHT31;67829;51.968;5.684;2023-11-18T03:15:30;8.6;72.5
78536;SHT31;67829;51.968;5.684;2023-11-18T03:17:59;8.6;72.5
78536;SHT31;67829;51.968;5.684;2023-11-18T03:20:27;8.6;72.5
78536;SHT31;67829;51.968;5.684;2023-11-18T03:22:59;8.6;72.3
78536;SHT31;67829;51.968;5.684;2023-11-18T03:25:28;8.6;72.3
78536;SHT31;67829;51.968;5.684;2023-11-18T03:27:56;8.6;72.2
78536;SHT31;67829;51.968;5.684;2023-11-18T03:30:25;8.6;72.2
78536;SHT31;67829;51.968;5.684;2023-11-18T03:32:55;8.6;72.4
78536;SHT31;67829;51.968;5.684;2023-11-18T03:35:24;8.6;72.4
78536;SHT31;67829;51.968;5.684;2023-11-18T03:37:52;8.6;72.5
78536;SHT31;67829;51.968;5.684;2023-11-18T03:40:21;8.6;72.6
78536;SHT31;67829;51.968;5.684;2023-11-18T03:42:50;8.6;72.6
78536;SHT31;67829;51.968;5.684;2023-11-18T03:45:19;8.6;72.6
78536;SHT31;67829;51.968;5.684;2023-11-18T03:47:48;8.6;72.7
78536;SHT31;67829;51.968;5.684;2023-11-18T03:50:17;8.6;72.8
78536;SHT31;67829;51.968;5.684;2023-11-18T03:52:45;8.6;72.8
78536;SHT31;67829;51.968;5.684;2023-11-18T03:55:14;8.6;73.1
78536;SHT31;67829;51.968;5.684;2023-11-18T03:57:44;8.6;73.1
78536;SHT31;67829;51.968;5.684;2023-11-18T04:00:16;8.6;73.1
78536;SHT31;67829;51.968;5.684;2023-11-18T04:02:46;8.6;73.2
78536;SHT31;67829;51.968;5.684;2023-11-18T04:05:14;8.6;73.3
78536;SHT31;67829;51.968;5.684;2023-11-18T04:07:43;8.6;73.4
78536;SHT31;67829;51.968;5.684;2023-11-18T04:10:11;8.6;73.4
78536;SHT31;67829;51.968;5.684;2023-11-18T04:12:41;8.6;73.3
78536;SHT31;67829;51.968;5.684;2023-11-18T04:15:13;8.6;73.4
78536;SHT31;67829;51.968;5.684;2023-11-18T04:17:41;8.6;73.3
78536;SHT31;67829;51.968;5.684;2023-11-18T04:20:11;8.6;73.4
78536;SHT31;67829;51.968;5.684;2023-11-18T04:22:42;8.6;73.5
78536;SHT31;67829;51.968;5.684;2023-11-18T04:25:12;8.6;73.6
78536;SHT31;67829;51.968;5.684;2023-11-18T04:27:41;8.6;73.6
78536;SHT31;67829;51.968;5.684;2023-11-18T04:30:13;8.6;73.7
78536;SHT31;67829;51.968;5.684;2023-11-18T04:32:41;8.6;73.9
78536;SHT31;67829;51.968;5.684;2023-11-18T04:35:10;8.6;73.9
78536;SHT31;67829;51.968;5.684;2023-11-18T04:37:41;8.6;74.0
78536;SHT31;67829;51.968;5.684;2023-11-18T04:40:14;8.6;74.0
78536;SHT31;67829;51.968;5.684;2023-11-18T04:42:43;8.6;74.0
78536;SHT31;67829;51.968;5.684;2023-11-18T04:45:12;8.6;74.1
78536;SHT31;67829;51.968;5.684;2023-11-18T04:47:41;8.6;74.1
78536;SHT31;67829;51.968;5.684;2023-11-18T04:50:12;8.6;74.2
78536;SHT31;67829;51.968;5.684;2023-11-18T04:52:41;8.6;74.2
78536;SHT31;67829;51.968;5.684;2023-11-18T04:55:11;8.6;74.1
78536;SHT31;67829;51.968;5.684;2023-11-18T04:57:41;8.7;74.1
78536;SHT31;67829;51.968;5.684;2023-11-18T05:00:11;8.7;74.0
78536;SHT31;67829;51.968;5.684;2023-11-18T05:02:43;8.7;73.9
78536;SHT31;67829;51.968;5.684;2023-11-18T05:05:14;8.7;73.9
78536;SHT31;67829;51.968;5.684;2023-11-18T05:07:43;8.7;73.9
78536;SHT31;67829;51.968;5.684;2023-11-18T05:10:12;8.7;73.9
78536;SHT31;67829;51.968;5.684;2023-11-18T05:12:41;8.7;74.0
78536;SHT31;67829;51.968;5.684;2023-11-18T05:15:10;8.7;74.0
78536;SHT31;67829;51.968;5.684;2023-11-18T05:17:39;8.7;73.9
78536;SHT31;67829;51.968;5.684;2023-11-18T05:20:08;8.7;73.8
78536;SHT31;67829;51.968;5.684;2023-11-18T05:22:37;8.7;73.5
78536;SHT31;67829;51.968;5.684;2023-11-18T05:25:06;8.7;73.5
78536;SHT31;67829;51.968;5.684;2023-11-18T05:27:36;8.7;73.6
78536;SHT31;67829;51.968;5.684;2023-11-18T05:30:07;8.7;73.6
78536;SHT31;67829;51.968;5.684;2023-11-18T05:32:38;8.7;73.6
78536;SHT31;67829;51.968;5.684;2023-11-18T05:35:07;8.7;73.7
78536;SHT31;67829;51.968;5.684;2023-11-18T05:37:37;8.7;73.4
78536;SHT31;67829;51.968;5.684;2023-11-18T05:40:08;8.7;73.4
78536;SHT31;67829;51.968;5.684;2023-11-18T05:42:41;8.6;73.4
78536;SHT31;67829;51.968;5.684;2023-11-18T05:45:12;8.6;73.7
78536;SHT31;67829;51.968;5.684;2023-11-18T05:47:46;8.6;73.7
78536;SHT31;67829;51.968;5.684;2023-11-18T05:50:14;8.6;73.9
78536;SHT31;67829;51.968;5.684;2023-11-18T05:52:43;8.6;74.0
78536;SHT31;67829;51.968;5.684;2023-11-18T05:55:11;8.6;73.8
78536;SHT31;67829;51.968;5.684;2023-11-18T05:57:40;8.6;73.7
78536;SHT31;67829;51.968;5.684;2023-11-18T06:00:13;8.6;73.7
78536;SHT31;67829;51.968;5.684;2023-11-18T06:02:42;8.6;73.7
78536;SHT31;67829;51.968;5.684;2023-11-18T06:05:13;8.6;73.7
78536;SHT31;67829;51.968;5.684;2023-11-18T06:07:44;8.6;73.5
78536;SHT31;67829;51.968;5.684;2023-11-18T06:10:15;8.6;73.5
78536;SHT31;67829;51.968;5.684;2023-11-18T06:12:46;8.7;73.5
78536;SHT31;67829;51.968;5.684;2023-11-18T06:15:14;8.7;73.7
78536;SHT31;67829;51.968;5.684;2023-11-18T06:17:45;8.7;73.5
78536;SHT31;67829;51.968;5.684;2023-11-18T06:20:14;8.7;73.4
78536;SHT31;67829;51.968;5.684;2023-11-18T06:22:43;8.7;73.5
78536;SHT31;67829;51.968;5.684;2023-11-18T06:25:12;8.7;73.4
78536;SHT31;67829;51.968;5.684;2023-11-18T06:27:40;8.7;73.3
78536;SHT31;67829;51.968;5.684;2023-11-18T06:30:12;8.7;73.5
78536;SHT31;67829;51.968;5.684;2023-11-18T06:32:42;8.7;73.7
78536;SHT31;67829;51.968;5.684;2023-11-18T06:35:10;8.7;73.7
78536;SHT31;67829;51.968;5.684;2023-11-18T06:37:41;8.7;73.5
78536;SHT31;67829;51.968;5.684;2023-11-18T06:40:13;8.7;73.5
78536;SHT31;67829;51.968;5.684;2023-11-18T06:42:45;8.7;73.6
78536;SHT31;67829;51.968;5.684;2023-11-18T06:45:15;8.7;73.6
78536;SHT31;67829;51.968;5.684;2023-11-18T06:47:43;8.7;73.2
78536;SHT31;67829;51.968;5.684;2023-11-18T06:50:12;8.7;73.0
78536;SHT31;67829;51.968;5.684;2023-11-18T06:52:42;8.7;73.3
78536;SHT31;67829;51.968;5.684;2023-11-18T06:55:11;8.7;73.5
78536;SHT31;67829;51.968;5.684;2023-11-18T06:57:40;8.7;73.6
78536;SHT31;67829;51.968;5.684;2023-11-18T07:00:10;8.7;73.5
78536;SHT31;67829;51.968;5.684;2023-11-18T07:02:40;8.7;73.6
78536;SHT31;67829;51.968;5.684;2023-11-18T07:05:09;8.7;73.6
78536;SHT31;67829;51.968;5.684;2023-11-18T07:07:38;8.7;73.5
78536;SHT31;67829;51.968;5.684;2023-11-18T07:10:09;8.7;73.6
78536;SHT31;67829;51.968;5.684;2023-11-18T07:12:39;8.7;73.7
78536;SHT31;67829;51.968;5.684;2023-11-18T07:15:08;8.8;73.7
78536;SHT31;67829;51.968;5.684;2023-11-18T07:17:38;8.8;73.7
78536;SHT31;67829;51.968;5.684;2023-11-18T07:20:07;8.8;73.8
78536;SHT31;67829;51.968;5.684;2023-11-18T07:22:39;8.8;73.7
78536;SHT31;67829;51.968;5.684;2023-11-18T07:25:08;8.8;73.6
78536;SHT31;67829;51.968;5.684;2023-11-18T07:27:37;8.8;73.6
78536;SHT31;67829;51.968;5.684;2023-11-18T07:30:06;8.8;73.6
78536;SHT31;67829;51.968;5.684;2023-11-18T07:32:37;8.8;73.8
78536;SHT31;67829;51.968;5.684;2023-11-18T07:35:07;8.8;73.9
78536;SHT31;67829;51.968;5.684;2023-11-18T07:37:36;8.8;73.8
78536;SHT31;67829;51.968;5.684;2023-11-18T07:40:06;8.8;73.7
78536;SHT31;67829;51.968;5.684;2023-11-18T07:42:38;8.8;73.7
78536;SHT31;67829;51.968;5.684;2023-11-18T07:45:07;8.9;73.6
78536;SHT31;67829;51.968;5.684;2023-11-18T07:47:41;8.9;73.6
78536;SHT31;67829;51.968;5.684;2023-11-18T07:50:10;8.9;73.7
78536;SHT31;67829;51.968;5.684;2023-11-18T07:52:41;8.9;73.7
78536;SHT31;67829;51.968;5.684;2023-11-18T07:55:11;8.9;73.7
78536;SHT31;67829;51.968;5.684;2023-11-18T07:57:40;8.9;73.8
78536;SHT31;67829;51.968;5.684;2023-11-18T08:00:09;8.9;73.7
78536;SHT31;67829;51.968;5.684;2023-11-18T08:02:39;8.9;73.7
78536;SHT31;67829;51.968;5.684;2023-11-18T08:05:08;8.9;73.7
78536;SHT31;67829;51.968;5.684;2023-11-18T08:07:42;8.9;73.8
78536;SHT31;67829;51.968;5.684;2023-11-18T08:10:11;8.9;73.9
78536;SHT31;67829;51.968;5.684;2023-11-18T08:12:45;8.9;73.8
78536;SHT31;67829;51.968;5.684;2023-11-18T08:15:14;8.9;73.7
78536;SHT31;67829;51.968;5.684;2023-11-18T08:17:43;9.0;73.8
78536;SHT31;67829;51.968;5.684;2023-11-18T08:20:12;9.0;73.9
78536;SHT31;67829;51.968;5.684;2023-11-18T08:22:43;9.0;73.9
78536;SHT31;67829;51.968;5.684;2023-11-18T08:25:13;9.0;73.8
78536;SHT31;67829;51.968;5.684;2023-11-18T08:27:41;9.0;73.8
78536;SHT31;67829;51.968;5.684;2023-11-18T08:30:12;9.0;73.7
78536;SHT31;67829;51.968;5.684;2023-11-18T08:32:45;9.0;73.8
78536;SHT31;67829;51.968;5.684;2023-11-18T08:35:14;9.0;73.6
78536;SHT31;67829;51.968;5.684;2023-11-18T08:37:44;9.0;73.6
78536;SHT31;67829;51.968;5.684;2023-11-18T08:40:14;9.1;73.5
78536;SHT31;67829;51.968;5.684;2023-11-18T08:42:47;9.1;73.6
78536;SHT31;67829;51.968;5.684;2023-11-18T08:45:17;9.1;73.6
78536;SHT31;67829;51.968;5.684;2023-11-18T08:47:48;9.1;73.5
78536;SHT31;67829;51.968;5.684;2023-11-18T08:50:19;9.1;73.7
78536;SHT31;67829;51.968;5.684;2023-11-18T08:52:51;9.1;73.6
78536;SHT31;67829;51.968;5.684;2023-11-18T08:55:25;9.1;73.5
78536;SHT31;67829;51.968;5.684;2023-11-18T08:57:59;9.2;73.5
78536;SHT31;67829;51.968;5.684;2023-11-18T09:00:31;9.2;73.5
78536;SHT31;67829;51.968;5.684;2023-11-18T09:03:16;9.2;73.1
78536;SHT31;67829;51.968;5.684;2023-11-18T09:05:55;9.2;73.2
78536;SHT31;67829;51.968;5.684;2023-11-18T09:08:31;9.2;73.4
78536;SHT31;67829;51.968;5.684;2023-11-18T09:11:02;9.3;73.2
78536;SHT31;67829;51.968;5.684;2023-11-18T09:13:31;9.3;73.1
78536;SHT31;67829;51.968;5.684;2023-11-18T09:16:02;9.3;73.1
78536;SHT31;67829;51.968;5.684;2023-11-18T09:18:35;9.3;73.2
78536;SHT31;67829;51.968;5.684;2023-11-18T09:21:06;9.3;72.9
78536;SHT31;67829;51.968;5.684;2023-11-18T09:23:41;9.4;73.1
78536;SHT31;67829;51.968;5.684;2023-11-18T09:26:11;9.4;72.8
78536;SHT31;67829;51.968;5.684;2023-11-18T09:28:41;9.4;72.9
78536;SHT31;67829;51.968;5.684;2023-11-18T09:31:11;9.4;72.9
78536;SHT31;67829;51.968;5.684;2023-11-18T09:33:41;9.5;72.7
78536;SHT31;67829;51.968;5.684;2023-11-18T09:36:15;9.5;72.5
78536;SHT31;67829;51.968;5.684;2023-11-18T09:38:47;9.5;72.3
78536;SHT31;67829;51.968;5.684;2023-11-18T09:41:16;9.5;72.2
78536;SHT31;67829;51.968;5.684;2023-11-18T09:43:46;9.6;72.1
78536;SHT31;67829;51.968;5.684;2023-11-18T09:46:22;9.6;72.1
78536;SHT31;67829;51.968;5.684;2023-11-18T09:49:02;9.6;71.9
78536;SHT31;67829;51.968;5.684;2023-11-18T09:51:38;9.6;71.8
78536;SHT31;67829;51.968;5.684;2023-11-18T09:54:16;9.6;71.8
78536;SHT31;67829;51.968;5.684;2023-11-18T09:56:55;9.6;71.6
78536;SHT31;67829;51.968;5.684;2023-11-18T09:59:35;9.7;71.5
78536;SHT31;67829;51.968;5.684;2023-11-18T10:02:10;9.7;71.9
78536;SHT31;67829;51.968;5.684;2023-11-18T10:04:39;9.7;72.1
78536;SHT31;67829;51.968;5.684;2023-11-18T10:07:08;9.7;72.3
78536;SHT31;67829;51.968;5.684;2023-11-18T10:09:37;9.7;72.1
78536;SHT31;67829;51.968;5.684;2023-11-18T10:12:09;9.7;72.2
78536;SHT31;67829;51.968;5.684;2023-11-18T10:14:43;9.7;72.6
78536;SHT31;67829;51.968;5.684;2023-11-18T10:17:11;9.7;73.0
78536;SHT31;67829;51.968;5.684;2023-11-18T10:19:57;9.7;73.2
78536;SHT31;67829;51.968;5.684;2023-11-18T10:22:28;9.7;73.4
78536;SHT31;67829;51.968;5.684;2023-11-18T10:24:58;9.7;73.8
78536;SHT31;67829;51.968;5.684;2023-11-18T10:27:28;9.7;73.8
78536;SHT31;67829;51.968;5.684;2023-11-18T10:30:01;9.7;73.9
78536;SHT31;67829;51.968;5.684;2023-11-18T10:32:31;9.8;73.9
78536;SHT31;67829;51.968;5.684;2023-11-18T10:35:05;9.8;73.9
78536;SHT31;67829;51.968;5.684;2023-11-18T10:37:37;9.8;73.9
78536;SHT31;67829;51.968;5.684;2023-11-18T10:40:10;9.8;73.9
78536;SHT31;67829;51.968;5.684;2023-11-18T10:42:41;9.8;74.1
78536;SHT31;67829;51.968;5.684;2023-11-18T10:45:24;9.8;74.1
78536;SHT31;67829;51.968;5.684;2023-11-18T10:47:54;9.8;74.1
78536;SHT31;67829;51.968;5.684;2023-11-18T10:50:25;9.8;74.0
78536;SHT31;67829;51.968;5.684;2023-11-18T10:52:58;9.9;73.9
78536;SHT31;67829;51.968;5.684;2023-11-18T10:55:39;9.9;74.0
78536;SHT31;67829;51.968;5.684;2023-11-18T10:58:08;9.9;74.1
78536;SHT31;67829;51.968;5.684;2023-11-18T11:00:51;9.9;74.1
78536;SHT31;67829;51.968;5.684;2023-11-18T11:03:25;9.9;74.2
78536;SHT31;67829;51.968;5.684;2023-11-18T11:06:00;9.9;74.4
78536;SHT31;67829;51.968;5.684;2023-11-18T11:08:32;9.9;74.4
78536;SHT31;67829;51.968;5.684;2023-11-18T11:11:04;9.9;74.4
78536;SHT31;67829;51.968;5.684;2023-11-18T11:13:36;9.9;74.4
78536;SHT31;67829;51.968;5.684;2023-11-18T11:16:12;9.9;74.5
78536;SHT31;67829;51.968;5.684;2023-11-18T11:18:48;9.9;74.5
78536;SHT31;67829;51.968;5.684;2023-11-18T11:21:23;10.0;74.5
78536;SHT31;67829;51.968;5.684;2023-11-18T11:24:00;10.0;74.5
78536;SHT31;67829;51.968;5.684;2023-11-18T11:26:45;10.0;74.3
78536;SHT31;67829;51.968;5.684;2023-11-18T11:29:25;10.0;74.3
78536;SHT31;67829;51.968;5.684;2023-11-18T11:32:02;10.0;74.4
78536;SHT31;67829;51.968;5.684;2023-11-18T11:34:40;10.0;74.6
78536;SHT31;67829;51.968;5.684;2023-11-18T11:37:14;10.0;74.7
78536;SHT31;67829;51.968;5.684;2023-11-18T11:39:45;9.9;74.4
78536;SHT31;67829;51.968;5.684;2023-11-18T11:42:15;9.9;74.7
78536;SHT31;67829;51.968;5.684;2023-11-18T11:44:48;9.9;74.7
78536;SHT31;67829;51.968;5.684;2023-11-18T11:47:20;9.9;75.0
78536;SHT31;67829;51.968;5.684;2023-11-18T11:49:58;9.9;75.1
78536;SHT31;67829;51.968;5.684;2023-11-18T11:52:31;9.9;75.2
78536;SHT31;67829;51.968;5.684;2023-11-18T11:55:09;9.9;75.3
78536;SHT31;67829;51.968;5.684;2023-11-18T11:57:39;9.9;75.6
78536;SHT31;67829;51.968;5.684;2023-11-18T12:00:11;9.9;75.6
78536;SHT31;67829;51.968;5.684;2023-11-18T12:02:50;9.9;75.8
78536;SHT31;67829;51.968;5.684;2023-11-18T12:05:24;9.9;76.0
78536;SHT31;67829;51.968;5.684;2023-11-18T12:07:54;9.9;76.1
78536;SHT31;67829;51.968;5.684;2023-11-18T12:10:28;10.0;76.1
78536;SHT31;67829;51.968;5.684;2023-11-18T12:13:08;10.0;76.1
78536;SHT31;67829;51.968;5.684;2023-11-18T12:15:52;10.0;76.3
78536;SHT31;67829;51.968;5.684;2023-11-18T12:18:30;10.0;76.5
78536;SHT31;67829;51.968;5.684;2023-11-18T12:21:03;10.0;76.6
78536;SHT31;67829;51.968;5.684;2023-11-18T12:23:34;10.1;76.6
78536;SHT31;67829;51.968;5.684;2023-11-18T12:26:37;10.1;76.6
78536;SHT31;67829;51.968;5.684;2023-11-18T12:28:57;10.1;76.6
78536;SHT31;67829;51.968;5.684;2023-11-18T12:31:40;10.1;76.6
78536;SHT31;67829;51.968;5.684;2023-11-18T12:34:09;10.1;76.7
78536;SHT31;67829;51.968;5.684;2023-11-18T12:37:03;10.2;76.7
78536;SHT31;67829;51.968;5.684;2023-11-18T12:40:12;10.2;76.7
78536;SHT31;67829;51.968;5.684;2023-11-18T12:43:00;10.2;76.7
78536;SHT31;67829;51.968;5.684;2023-11-18T12:46:03;10.3;76.4
78536;SHT31;67829;51.968;5.684;2023-11-18T12:48:36;10.3;76.3
78536;SHT31;67829;51.968;5.684;2023-11-18T12:51:06;10.3;76.4
78536;SHT31;67829;51.968;5.684;2023-11-18T12:53:40;10.3;76.6
78536;SHT31;67829;51.968;5.684;2023-11-18T12:56:12;10.3;76.5
78536;SHT31;67829;51.968;5.684;2023-11-18T12:58:42;10.3;76.6
78536;SHT31;67829;51.968;5.684;2023-11-18T13:01:10;10.3;76.7
78536;SHT31;67829;51.968;5.684;2023-11-18T13:03:40;10.3;76.8
78536;SHT31;67829;51.968;5.684;2023-11-18T13:06:11;10.3;76.8
78536;SHT31;67829;51.968;5.684;2023-11-18T13:08:41;10.3;76.9
78536;SHT31;67829;51.968;5.684;2023-11-18T13:11:12;10.4;76.8
78536;SHT31;67829;51.968;5.684;2023-11-18T13:13:42;10.4;76.7
78536;SHT31;67829;51.968;5.684;2023-11-18T13:16:12;10.4;76.7
78536;SHT31;67829;51.968;5.684;2023-11-18T13:18:46;10.4;76.9
78536;SHT31;67829;51.968;5.684;2023-11-18T13:21:17;10.4;76.9
78536;SHT31;67829;51.968;5.684;2023-11-18T13:23:51;10.4;76.8
78536;SHT31;67829;51.968;5.684;2023-11-18T13:26:21;10.4;76.7
78536;SHT31;67829;51.968;5.684;2023-11-18T13:28:50;10.4;76.8
78536;SHT31;67829;51.968;5.684;2023-11-18T13:31:22;10.4;76.8
78536;SHT31;67829;51.968;5.684;2023-11-18T13:33:51;10.4;76.9
78536;SHT31;67829;51.968;5.684;2023-11-18T13:36:20;10.4;76.9
78536;SHT31;67829;51.968;5.684;2023-11-18T13:38:49;10.4;76.9
78536;SHT31;67829;51.968;5.684;2023-11-18T13:41:30;10.4;77.0
78536;SHT31;67829;51.968;5.684;2023-11-18T13:43:59;10.4;77.1
78536;SHT31;67829;51.968;5.684;2023-11-18T13:46:29;10.4;77.1
78536;SHT31;67829;51.968;5.684;2023-11-18T13:48:59;10.4;77.2
78536;SHT31;67829;51.968;5.684;2023-11-18T13:51:27;10.4;77.2
78536;SHT31;67829;51.968;5.684;2023-11-18T13:53:59;10.4;77.2
78536;SHT31;67829;51.968;5.684;2023-11-18T13:56:30;10.4;77.2
78536;SHT31;67829;51.968;5.684;2023-11-18T13:58:59;10.4;77.3
78536;SHT31;67829;51.968;5.684;2023-11-18T14:01:28;10.4;77.4
78536;SHT31;67829;51.968;5.684;2023-11-18T14:03:58;10.4;77.4
78536;SHT31;67829;51.968;5.684;2023-11-18T14:06:30;10.4;77.4
78536;SHT31;67829;51.968;5.684;2023-11-18T14:08:59;10.4;77.4
78536;SHT31;67829;51.968;5.684;2023-11-18T14:11:28;10.4;77.4
78536;SHT31;67829;51.968;5.684;2023-11-18T14:13:56;10.4;77.4
78536;SHT31;67829;51.968;5.684;2023-11-18T14:16:25;10.4;77.5
78536;SHT31;67829;51.968;5.684;2023-11-18T14:18:54;10.5;77.6
78536;SHT31;67829;51.968;5.684;2023-11-18T14:21:22;10.5;77.6
78536;SHT31;67829;51.968;5.684;2023-11-18T14:23:51;10.5;77.6
78536;SHT31;67829;51.968;5.684;2023-11-18T14:26:25;10.5;77.6
78536;SHT31;67829;51.968;5.684;2023-11-18T14:28:53;10.5;77.5
78536;SHT31;67829;51.968;5.684;2023-11-18T14:31:22;10.5;77.5
78536;SHT31;67829;51.968;5.684;2023-11-18T14:33:51;10.5;77.6
78536;SHT31;67829;51.968;5.684;2023-11-18T14:36:23;10.5;77.4
78536;SHT31;67829;51.968;5.684;2023-11-18T14:38:51;10.5;77.3
78536;SHT31;67829;51.968;5.684;2023-11-18T14:41:20;10.5;77.2
78536;SHT31;67829;51.968;5.684;2023-11-18T14:43:53;10.5;77.2
78536;SHT31;67829;51.968;5.684;2023-11-18T14:46:22;10.5;77.2
78536;SHT31;67829;51.968;5.684;2023-11-18T14:48:50;10.5;76.9
78536;SHT31;67829;51.968;5.684;2023-11-18T14:51:21;10.5;76.9
78536;SHT31;67829;51.968;5.684;2023-11-18T14:53:49;10.5;76.9
78536;SHT31;67829;51.968;5.684;2023-11-18T14:56:18;10.5;76.9
78536;SHT31;67829;51.968;5.684;2023-11-18T14:58:47;10.5;77.0
78536;SHT31;67829;51.968;5.684;2023-11-18T15:01:16;10.5;76.9
78536;SHT31;67829;51.968;5.684;2023-11-18T15:03:45;10.5;76.7
78536;SHT31;67829;51.968;5.684;2023-11-18T15:06:14;10.5;76.7
78536;SHT31;67829;51.968;5.684;2023-11-18T15:08:42;10.6;76.7
78536;SHT31;67829;51.968;5.684;2023-11-18T15:11:11;10.6;76.6
78536;SHT31;67829;51.968;5.684;2023-11-18T15:13:41;10.6;76.5
78536;SHT31;67829;51.968;5.684;2023-11-18T15:16:10;10.6;76.7
78536;SHT31;67829;51.968;5.684;2023-11-18T15:18:39;10.6;76.6
78536;SHT31;67829;51.968;5.684;2023-11-18T15:21:08;10.6;76.7
78536;SHT31;67829;51.968;5.684;2023-11-18T15:23:41;10.6;76.7
78536;SHT31;67829;51.968;5.684;2023-11-18T15:26:10;10.6;76.8
78536;SHT31;67829;51.968;5.684;2023-11-18T15:28:38;10.6;76.8
78536;SHT31;67829;51.968;5.684;2023-11-18T15:31:07;10.6;76.9
78536;SHT31;67829;51.968;5.684;2023-11-18T15:33:35;10.6;76.8
78536;SHT31;67829;51.968;5.684;2023-11-18T15:36:05;10.6;76.9
78536;SHT31;67829;51.968;5.684;2023-11-18T15:38:35;10.6;76.8
78536;SHT31;67829;51.968;5.684;2023-11-18T15:41:04;10.6;76.8
78536;SHT31;67829;51.968;5.684;2023-11-18T15:43:33;10.6;76.8
78536;SHT31;67829;51.968;5.684;2023-11-18T15:46:01;10.6;76.8
78536;SHT31;67829;51.968;5.684;2023-11-18T15:48:32;10.6;76.8
78536;SHT31;67829;51.968;5.684;2023-11-18T15:51:01;10.6;76.9
78536;SHT31;67829;51.968;5.684;2023-11-18T15:53:30;10.6;76.7
78536;SHT31;67829;51.968;5.684;2023-11-18T15:56:00;10.6;76.8
78536;SHT31;67829;51.968;5.684;2023-11-18T15:58:30;10.6;76.8
78536;SHT31;67829;51.968;5.684;2023-11-18T16:00:59;10.6;76.8
78536;SHT31;67829;51.968;5.684;2023-11-18T16:03:28;10.6;76.8
78536;SHT31;67829;51.968;5.684;2023-11-18T16:05:56;10.6;77.1
78536;SHT31;67829;51.968;5.684;2023-11-18T16:08:25;10.6;77.2
78536;SHT31;67829;51.968;5.684;2023-11-18T16:10:54;10.6;77.2
78536;SHT31;67829;51.968;5.684;2023-11-18T16:13:22;10.6;77.1
78536;SHT31;67829;51.968;5.684;2023-11-18T16:15:51;10.6;77.3
78536;SHT31;67829;51.968;5.684;2023-11-18T16:18:19;10.6;77.4
78536;SHT31;67829;51.968;5.684;2023-11-18T16:20:49;10.6;77.6
78536;SHT31;67829;51.968;5.684;2023-11-18T16:23:18;10.6;77.5
78536;SHT31;67829;51.968;5.684;2023-11-18T16:25:47;10.6;77.4
78536;SHT31;67829;51.968;5.684;2023-11-18T16:28:16;10.6;77.5
78536;SHT31;67829;51.968;5.684;2023-11-18T16:30:44;10.6;77.6
78536;SHT31;67829;51.968;5.684;2023-11-18T16:33:13;10.6;77.8
78536;SHT31;67829;51.968;5.684;2023-11-18T16:35:41;10.6;77.9